sensor_id;sensor_type;location;lat;lon;timestamp;pressure;altitude;pressure_sealevel;temperature;humidity
39177;BME280;24904;52.208;21.192;2023-03-15T00:13:04;98744.78;;;9.92;72.02
39177;BME280;24904;52.208;21.192;2023-03-15T00:18:09;98754.06;;;9.90;72.01
39177;BME280;24904;52.208;21.192;2023-03-15T00:23:15;98763.99;;;9.91;72.12
39177;BME280;24904;52.208;21.192;2023-03-15T00:28:20;98762.74;;;9.91;72.11
39177;BME280;24904;52.208;21.192;2023-03-15T00:33:25;98770.83;;;9.90;72.22
39177;BME280;24904;52.208;21.192;2023-03-15T00:38:31;98778.00;;;9.92;72.18
39177;BME280;24904;52.208;21.192;2023-03-15T00:43:37;98784.15;;;9.95;72.35
39177;BME280;24904;52.208;21.192;2023-03-15T00:48:42;98791.73;;;9.96;72.27
39177;BME280;24904;52.208;21.192;2023-03-15T00:53:48;98799.30;;;9.99;72.22
39177;BME280;24904;52.208;21.192;2023-03-15T00:58:53;98807.29;;;9.98;72.16
39177;BME280;24904;52.208;21.192;2023-03-15T01:03:58;98825.88;;;9.96;72.05
39177;BME280;24904;52.208;21.192;2023-03-15T01:09:04;98899.16;;;9.49;68.77
39177;BME280;24904;52.208;21.192;2023-03-15T01:14:09;98937.80;;;8.33;67.85
39177;BME280;24904;52.208;21.192;2023-03-15T01:19:14;98961.95;;;7.70;68.41
39177;BME280;24904;52.208;21.192;2023-03-15T01:24:19;98986.25;;;6.98;68.89
39177;BME280;24904;52.208;21.192;2023-03-15T01:29:26;99005.25;;;6.40;69.74
39177;BME280;24904;52.208;21.192;2023-03-15T01:34:32;99022.70;;;6.07;69.76
39177;BME280;24904;52.208;21.192;2023-03-15T01:39:37;99055.50;;;5.66;69.22
39177;BME280;24904;52.208;21.192;2023-03-15T01:45:02;99069.34;;;5.42;69.82
39177;BME280;24904;52.208;21.192;2023-03-15T01:50:11;99101.77;;;5.23;70.20
39177;BME280;24904;52.208;21.192;2023-03-15T01:55:17;99116.42;;;5.01;70.71
39177;BME280;24904;52.208;21.192;2023-03-15T02:00:53;99126.08;;;4.85;71.03
39177;BME280;24904;52.208;21.192;2023-03-15T02:06:03;99158.44;;;4.76;71.15
39177;BME280;24904;52.208;21.192;2023-03-15T02:11:23;99191.53;;;4.71;71.51
39177;BME280;24904;52.208;21.192;2023-03-15T02:16:30;99225.29;;;4.59;70.54
39177;BME280;24904;52.208;21.192;2023-03-15T02:21:45;99254.15;;;4.49;70.18
39177;BME280;24904;52.208;21.192;2023-03-15T02:26:56;99265.28;;;4.50;70.34
39177;BME280;24904;52.208;21.192;2023-03-15T02:32:02;99273.75;;;4.54;70.76
39177;BME280;24904;52.208;21.192;2023-03-15T02:37:07;99300.20;;;4.61;71.00
39177;BME280;24904;52.208;21.192;2023-03-15T02:42:14;99338.45;;;4.50;71.30
39177;BME280;24904;52.208;21.192;2023-03-15T02:47:21;99358.14;;;4.40;71.63
39177;BME280;24904;52.208;21.192;2023-03-15T02:52:28;99376.09;;;4.37;71.40
39177;BME280;24904;52.208;21.192;2023-03-15T02:57:33;99386.30;;;4.23;70.98
39177;BME280;24904;52.208;21.192;2023-03-15T03:02:38;99399.84;;;4.17;71.34
39177;BME280;24904;52.208;21.192;2023-03-15T03:16:19;99406.19;;;4.47;70.37
39177;BME280;24904;52.208;21.192;2023-03-15T03:21:24;99425.67;;;4.51;70.05
39177;BME280;24904;52.208;21.192;2023-03-15T03:26:27;99446.10;;;4.47;69.81
39177;BME280;24904;52.208;21.192;2023-03-15T03:31:34;99458.77;;;4.51;70.10
39177;BME280;24904;52.208;21.192;2023-03-15T03:36:38;99463.88;;;4.47;69.84
39177;BME280;24904;52.208;21.192;2023-03-15T03:41:41;99492.97;;;4.49;70.14
39177;BME280;24904;52.208;21.192;2023-03-15T03:46:47;99503.34;;;4.47;69.70
39177;BME280;24904;52.208;21.192;2023-03-15T03:51:50;99512.52;;;4.40;69.98
39177;BME280;24904;52.208;21.192;2023-03-15T03:56:54;99529.75;;;4.51;70.14
39177;BME280;24904;52.208;21.192;2023-03-15T04:01:58;99548.98;;;4.46;69.90
39177;BME280;24904;52.208;21.192;2023-03-15T04:07:02;99549.92;;;4.46;70.11
39177;BME280;24904;52.208;21.192;2023-03-15T04:12:10;99544.72;;;4.42;69.86
39177;BME280;24904;52.208;21.192;2023-03-15T04:17:16;99555.80;;;4.41;70.08
39177;BME280;24904;52.208;21.192;2023-03-15T04:22:19;99563.52;;;4.36;70.00
39177;BME280;24904;52.208;21.192;2023-03-15T04:27:37;99562.77;;;4.34;70.17
39177;BME280;24904;52.208;21.192;2023-03-15T04:32:53;99554.19;;;4.32;69.92
39177;BME280;24904;52.208;21.192;2023-03-15T04:38:16;99568.08;;;4.29;70.04
39177;BME280;24904;52.208;21.192;2023-03-15T04:43:38;99578.23;;;4.22;69.89
39177;BME280;24904;52.208;21.192;2023-03-15T04:49:00;99578.32;;;4.22;70.25
39177;BME280;24904;52.208;21.192;2023-03-15T04:54:25;99595.45;;;4.17;70.07
39177;BME280;24904;52.208;21.192;2023-03-15T04:59:49;99606.80;;;4.18;69.72
39177;BME280;24904;52.208;21.192;2023-03-15T05:05:10;99605.81;;;4.16;69.49
39177;BME280;24904;52.208;21.192;2023-03-15T05:10:45;99611.00;;;4.09;69.12
39177;BME280;24904;52.208;21.192;2023-03-15T05:16:18;99625.85;;;4.13;69.02
39177;BME280;24904;52.208;21.192;2023-03-15T05:21:40;99632.93;;;4.13;68.80
39177;BME280;24904;52.208;21.192;2023-03-15T05:26:56;99656.91;;;4.13;68.62
39177;BME280;24904;52.208;21.192;2023-03-15T05:32:20;99662.61;;;4.11;68.70
39177;BME280;24904;52.208;21.192;2023-03-15T05:37:50;99668.23;;;4.12;68.34
39177;BME280;24904;52.208;21.192;2023-03-15T05:43:12;99670.66;;;4.08;67.01
39177;BME280;24904;52.208;21.192;2023-03-15T05:48:44;99676.77;;;4.10;66.88
39177;BME280;24904;52.208;21.192;2023-03-15T05:54:03;99689.55;;;4.15;66.71
39177;BME280;24904;52.208;21.192;2023-03-15T05:59:22;99711.94;;;4.13;66.73
39177;BME280;24904;52.208;21.192;2023-03-15T06:04:48;99724.00;;;4.21;66.74
39177;BME280;24904;52.208;21.192;2023-03-15T06:09:54;99739.24;;;4.25;66.95
39177;BME280;24904;52.208;21.192;2023-03-15T06:14:57;99749.63;;;4.32;66.79
39177;BME280;24904;52.208;21.192;2023-03-15T06:20:00;99766.01;;;4.35;66.89
39177;BME280;24904;52.208;21.192;2023-03-15T06:25:04;99776.36;;;4.42;66.66
39177;BME280;24904;52.208;21.192;2023-03-15T06:30:10;99780.48;;;4.39;66.33
39177;BME280;24904;52.208;21.192;2023-03-15T06:35:14;99788.11;;;4.43;65.87
39177;BME280;24904;52.208;21.192;2023-03-15T06:40:18;99795.35;;;4.41;65.30
39177;BME280;24904;52.208;21.192;2023-03-15T06:45:21;99805.89;;;4.31;64.96
39177;BME280;24904;52.208;21.192;2023-03-15T06:50:25;99814.14;;;4.26;64.83
39177;BME280;24904;52.208;21.192;2023-03-15T06:55:29;99823.23;;;4.23;64.74
39177;BME280;24904;52.208;21.192;2023-03-15T07:00:32;99839.23;;;4.21;64.24
39177;BME280;24904;52.208;21.192;2023-03-15T07:05:35;99857.11;;;4.22;65.04
39177;BME280;24904;52.208;21.192;2023-03-15T07:10:38;99857.54;;;4.32;64.62
39177;BME280;24904;52.208;21.192;2023-03-15T07:15:41;99856.64;;;4.25;64.04
39177;BME280;24904;52.208;21.192;2023-03-15T07:20:44;99858.64;;;4.21;65.05
39177;BME280;24904;52.208;21.192;2023-03-15T07:25:48;99854.08;;;4.24;64.45
39177;BME280;24904;52.208;21.192;2023-03-15T07:30:55;99861.06;;;4.13;63.79
39177;BME280;24904;52.208;21.192;2023-03-15T07:36:00;99865.52;;;4.07;64.20
39177;BME280;24904;52.208;21.192;2023-03-15T07:41:06;99869.90;;;4.10;63.94
39177;BME280;24904;52.208;21.192;2023-03-15T07:46:12;99874.20;;;4.11;63.99
39177;BME280;24904;52.208;21.192;2023-03-15T07:51:15;99886.70;;;4.14;63.70
39177;BME280;24904;52.208;21.192;2023-03-15T07:56:18;99893.86;;;4.31;64.34
39177;BME280;24904;52.208;21.192;2023-03-15T08:01:21;99906.42;;;4.55;64.21
39177;BME280;24904;52.208;21.192;2023-03-15T08:06:24;99922.14;;;4.56;63.50
39177;BME280;24904;52.208;21.192;2023-03-15T08:11:27;99925.09;;;4.67;64.11
39177;BME280;24904;52.208;21.192;2023-03-15T08:16:30;99931.70;;;4.76;63.48
39177;BME280;24904;52.208;21.192;2023-03-15T08:21:33;99942.23;;;4.75;63.71
39177;BME280;24904;52.208;21.192;2023-03-15T08:26:36;99949.86;;;4.72;63.64
39177;BME280;24904;52.208;21.192;2023-03-15T08:31:40;99973.28;;;4.65;63.65
39177;BME280;24904;52.208;21.192;2023-03-15T08:36:43;99975.77;;;4.60;63.86
39177;BME280;24904;52.208;21.192;2023-03-15T08:41:48;99985.80;;;4.66;64.08
39177;BME280;24904;52.208;21.192;2023-03-15T08:46:51;100000.89;;;4.72;63.98
39177;BME280;24904;52.208;21.192;2023-03-15T08:51:54;100016.39;;;4.81;63.86
39177;BME280;24904;52.208;21.192;2023-03-15T08:56:57;100023.34;;;4.85;63.64
39177;BME280;24904;52.208;21.192;2023-03-15T09:02:00;100036.65;;;4.96;63.37
39177;BME280;24904;52.208;21.192;2023-03-15T09:07:04;100043.92;;;4.98;63.09
39177;BME280;24904;52.208;21.192;2023-03-15T09:12:08;100035.00;;;5.02;62.85
39177;BME280;24904;52.208;21.192;2023-03-15T09:17:11;100039.15;;;5.00;61.79
39177;BME280;24904;52.208;21.192;2023-03-15T09:22:15;100043.66;;;5.00;61.46
39177;BME280;24904;52.208;21.192;2023-03-15T09:27:18;100043.34;;;5.06;61.01
39177;BME280;24904;52.208;21.192;2023-03-15T09:32:21;100040.49;;;5.20;60.33
39177;BME280;24904;52.208;21.192;2023-03-15T09:37:24;100050.17;;;5.25;59.88
39177;BME280;24904;52.208;21.192;2023-03-15T09:42:36;100051.52;;;5.32;59.46
39177;BME280;24904;52.208;21.192;2023-03-15T09:47:48;100046.99;;;5.48;59.57
39177;BME280;24904;52.208;21.192;2023-03-15T09:52:56;100050.36;;;5.61;58.72
39177;BME280;24904;52.208;21.192;2023-03-15T09:58:00;100052.92;;;5.58;57.78
39177;BME280;24904;52.208;21.192;2023-03-15T10:03:05;100057.70;;;5.68;58.35
39177;BME280;24904;52.208;21.192;2023-03-15T10:08:12;100059.70;;;5.85;58.28
39177;BME280;24904;52.208;21.192;2023-03-15T10:13:24;100060.22;;;6.02;57.88
39177;BME280;24904;52.208;21.192;2023-03-15T10:18:44;100056.89;;;6.10;56.23
39177;BME280;24904;52.208;21.192;2023-03-15T10:23:53;100043.95;;;6.13;56.01
39177;BME280;24904;52.208;21.192;2023-03-15T10:28:57;100050.34;;;6.16;55.78
39177;BME280;24904;52.208;21.192;2023-03-15T10:34:02;100051.42;;;6.33;55.72
39177;BME280;24904;52.208;21.192;2023-03-15T10:39:05;100054.30;;;6.22;54.63
39177;BME280;24904;52.208;21.192;2023-03-15T10:44:14;100053.27;;;6.11;55.00
39177;BME280;24904;52.208;21.192;2023-03-15T10:49:17;100056.73;;;6.23;54.99
39177;BME280;24904;52.208;21.192;2023-03-15T10:54:22;100055.92;;;6.15;54.45
39177;BME280;24904;52.208;21.192;2023-03-15T10:59:28;100052.71;;;6.28;54.35
39177;BME280;24904;52.208;21.192;2023-03-15T11:04:31;100053.27;;;6.42;54.21
39177;BME280;24904;52.208;21.192;2023-03-15T11:09:39;100056.09;;;6.53;52.77
39177;BME280;24904;52.208;21.192;2023-03-15T11:14:45;100053.96;;;6.49;52.73
39177;BME280;24904;52.208;21.192;2023-03-15T11:19:54;100066.05;;;6.49;52.66
39177;BME280;24904;52.208;21.192;2023-03-15T11:24:58;100058.92;;;6.47;53.08
39177;BME280;24904;52.208;21.192;2023-03-15T11:30:02;100058.99;;;6.65;53.75
39177;BME280;24904;52.208;21.192;2023-03-15T11:35:09;100064.91;;;6.75;53.84
39177;BME280;24904;52.208;21.192;2023-03-15T11:40:19;100061.46;;;6.93;54.01
39177;BME280;24904;52.208;21.192;2023-03-15T11:45:40;100062.07;;;7.00;52.74
39177;BME280;24904;52.208;21.192;2023-03-15T11:51:11;100064.73;;;6.96;52.78
39177;BME280;24904;52.208;21.192;2023-03-15T11:56:23;100068.11;;;6.94;51.85
39177;BME280;24904;52.208;21.192;2023-03-15T12:01:26;100075.89;;;6.82;50.98
39177;BME280;24904;52.208;21.192;2023-03-15T12:06:47;100085.65;;;6.75;51.34
39177;BME280;24904;52.208;21.192;2023-03-15T12:11:50;100092.86;;;6.88;51.59
39177;BME280;24904;52.208;21.192;2023-03-15T12:17:31;100100.45;;;6.96;51.38
39177;BME280;24904;52.208;21.192;2023-03-15T12:22:31;100096.70;;;6.85;50.87
39177;BME280;24904;52.208;21.192;2023-03-15T12:27:35;100104.78;;;6.84;51.53
39177;BME280;24904;52.208;21.192;2023-03-15T12:32:46;100104.84;;;6.87;51.76
39177;BME280;24904;52.208;21.192;2023-03-15T12:37:52;100113.55;;;6.78;51.30
39177;BME280;24904;52.208;21.192;2023-03-15T12:43:03;100118.41;;;6.65;51.89
39177;BME280;24904;52.208;21.192;2023-03-15T12:48:26;100129.91;;;6.71;51.89
39177;BME280;24904;52.208;21.192;2023-03-15T12:53:39;100140.05;;;6.67;51.36
39177;BME280;24904;52.208;21.192;2023-03-15T12:58:47;100150.20;;;6.59;51.64
39177;BME280;24904;52.208;21.192;2023-03-15T13:03:54;100149.23;;;6.57;51.64
39177;BME280;24904;52.208;21.192;2023-03-15T13:09:02;100153.64;;;6.49;51.29
39177;BME280;24904;52.208;21.192;2023-03-15T13:14:27;100157.77;;;6.40;51.20
39177;BME280;24904;52.208;21.192;2023-03-15T13:19:37;100156.48;;;6.34;51.56
39177;BME280;24904;52.208;21.192;2023-03-15T13:24:43;100162.76;;;6.39;51.84
39177;BME280;24904;52.208;21.192;2023-03-15T13:29:54;100163.23;;;6.46;52.38
39177;BME280;24904;52.208;21.192;2023-03-15T13:34:57;100169.83;;;6.50;52.25
39177;BME280;24904;52.208;21.192;2023-03-15T13:40:46;100172.84;;;6.57;52.51
39177;BME280;24904;52.208;21.192;2023-03-15T13:45:49;100179.25;;;6.58;51.49
39177;BME280;24904;52.208;21.192;2023-03-15T13:50:52;100186.42;;;6.48;51.29
39177;BME280;24904;52.208;21.192;2023-03-15T13:55:56;100195.22;;;6.41;50.57
39177;BME280;24904;52.208;21.192;2023-03-15T14:04:40;100203.70;;;6.37;50.06
39177;BME280;24904;52.208;21.192;2023-03-15T14:09:43;100207.01;;;6.42;50.24
39177;BME280;24904;52.208;21.192;2023-03-15T14:14:50;100210.95;;;6.47;50.24
39177;BME280;24904;52.208;21.192;2023-03-15T14:19:54;100212.02;;;6.49;49.87
39177;BME280;24904;52.208;21.192;2023-03-15T14:24:58;100211.89;;;6.50;50.16
39177;BME280;24904;52.208;21.192;2023-03-15T14:30:02;100210.55;;;6.59;50.56
39177;BME280;24904;52.208;21.192;2023-03-15T14:35:17;100214.47;;;6.63;49.80
39177;BME280;24904;52.208;21.192;2023-03-15T14:40:27;100219.98;;;6.57;49.48
39177;BME280;24904;52.208;21.192;2023-03-15T14:45:32;100226.92;;;6.47;49.08
39177;BME280;24904;52.208;21.192;2023-03-15T14:50:37;100234.67;;;6.43;49.01
39177;BME280;24904;52.208;21.192;2023-03-15T14:55:41;100237.20;;;6.25;48.66
39177;BME280;24904;52.208;21.192;2023-03-15T15:00:46;100239.39;;;6.20;49.09
39177;BME280;24904;52.208;21.192;2023-03-15T15:05:50;100244.52;;;6.11;49.09
39177;BME280;24904;52.208;21.192;2023-03-15T15:10:55;100252.25;;;6.00;48.12
39177;BME280;24904;52.208;21.192;2023-03-15T15:15:58;100254.77;;;5.88;48.22
39177;BME280;24904;52.208;21.192;2023-03-15T15:21:05;100254.77;;;5.85;48.75
39177;BME280;24904;52.208;21.192;2023-03-15T15:26:17;100257.73;;;5.91;49.15
39177;BME280;24904;52.208;21.192;2023-03-15T15:31:58;100263.50;;;6.01;48.47
39177;BME280;24904;52.208;21.192;2023-03-15T15:37:01;100268.23;;;5.98;48.69
39177;BME280;24904;52.208;21.192;2023-03-15T15:42:04;100281.18;;;6.05;49.02
39177;BME280;24904;52.208;21.192;2023-03-15T15:47:08;100285.06;;;6.04;48.97
39177;BME280;24904;52.208;21.192;2023-03-15T15:52:12;100293.92;;;6.01;49.13
39177;BME280;24904;52.208;21.192;2023-03-15T15:57:15;100297.95;;;6.08;49.39
39177;BME280;24904;52.208;21.192;2023-03-15T16:02:23;100305.00;;;6.04;48.75
39177;BME280;24904;52.208;21.192;2023-03-15T16:07:26;100317.94;;;5.93;49.01
39177;BME280;24904;52.208;21.192;2023-03-15T16:12:29;100320.55;;;5.82;49.13
39177;BME280;24904;52.208;21.192;2023-03-15T16:17:34;100325.08;;;5.78;49.17
39177;BME280;24904;52.208;21.192;2023-03-15T16:22:38;100332.13;;;5.66;49.89
39177;BME280;24904;52.208;21.192;2023-03-15T16:27:42;100340.67;;;5.68;49.96
39177;BME280;24904;52.208;21.192;2023-03-15T16:32:46;100335.20;;;5.64;50.34
39177;BME280;24904;52.208;21.192;2023-03-15T16:37:50;100339.43;;;5.58;50.73
39177;BME280;24904;52.208;21.192;2023-03-15T16:42:57;100350.61;;;5.62;51.18
39177;BME280;24904;52.208;21.192;2023-03-15T16:48:01;100352.32;;;5.70;51.58
39177;BME280;24904;52.208;21.192;2023-03-15T16:53:07;100357.81;;;5.64;51.60
39177;BME280;24904;52.208;21.192;2023-03-15T16:58:17;100364.64;;;5.53;51.91
39177;BME280;24904;52.208;21.192;2023-03-15T17:03:20;100374.02;;;5.52;52.52
39177;BME280;24904;52.208;21.192;2023-03-15T17:08:23;100380.63;;;5.47;52.64
39177;BME280;24904;52.208;21.192;2023-03-15T17:13:28;100385.97;;;5.43;53.12
39177;BME280;24904;52.208;21.192;2023-03-15T17:18:33;100387.93;;;5.41;53.52
39177;BME280;24904;52.208;21.192;2023-03-15T17:23:36;100397.27;;;5.42;53.44
39177;BME280;24904;52.208;21.192;2023-03-15T17:28:40;100395.33;;;5.41;53.67
39177;BME280;24904;52.208;21.192;2023-03-15T17:33:44;100393.88;;;5.40;53.81
39177;BME280;24904;52.208;21.192;2023-03-15T17:38:47;100392.39;;;5.25;53.69
39177;BME280;24904;52.208;21.192;2023-03-15T17:43:50;100399.70;;;5.11;54.44
39177;BME280;24904;52.208;21.192;2023-03-15T17:48:54;100406.08;;;5.04;54.67
39177;BME280;24904;52.208;21.192;2023-03-15T17:53:58;100414.75;;;4.94;54.60
39177;BME280;24904;52.208;21.192;2023-03-15T17:59:01;100410.30;;;4.78;54.71
39177;BME280;24904;52.208;21.192;2023-03-15T18:04:07;100418.38;;;4.64;54.88
39177;BME280;24904;52.208;21.192;2023-03-15T18:09:12;100424.69;;;4.54;55.17
39177;BME280;24904;52.208;21.192;2023-03-15T18:14:16;100431.90;;;4.47;55.22
39177;BME280;24904;52.208;21.192;2023-03-15T18:19:20;100431.59;;;4.34;55.44
39177;BME280;24904;52.208;21.192;2023-03-15T18:24:23;100442.36;;;4.27;55.96
39177;BME280;24904;52.208;21.192;2023-03-15T18:29:26;100445.03;;;4.20;56.03
39177;BME280;24904;52.208;21.192;2023-03-15T18:34:29;100452.21;;;4.07;56.47
39177;BME280;24904;52.208;21.192;2023-03-15T18:39:32;100455.66;;;4.04;57.07
39177;BME280;24904;52.208;21.192;2023-03-15T18:44:35;100466.19;;;3.87;57.08
39177;BME280;24904;52.208;21.192;2023-03-15T18:49:38;100467.98;;;3.73;57.14
39177;BME280;24904;52.208;21.192;2023-03-15T18:54:41;100470.89;;;3.65;57.41
39177;BME280;24904;52.208;21.192;2023-03-15T18:59:44;100472.01;;;3.59;58.38
39177;BME280;24904;52.208;21.192;2023-03-15T19:04:47;100467.70;;;3.43;58.24
39177;BME280;24904;52.208;21.192;2023-03-15T19:09:50;100472.73;;;3.38;58.50
39177;BME280;24904;52.208;21.192;2023-03-15T19:14:53;100472.41;;;3.34;58.62
39177;BME280;24904;52.208;21.192;2023-03-15T19:19:56;100477.05;;;3.27;58.90
39177;BME280;24904;52.208;21.192;2023-03-15T19:24:59;100485.13;;;3.20;59.32
39177;BME280;24904;52.208;21.192;2023-03-15T19:30:03;100489.08;;;3.17;59.50
39177;BME280;24904;52.208;21.192;2023-03-15T19:35:08;100491.01;;;3.09;59.56
39177;BME280;24904;52.208;21.192;2023-03-15T19:40:13;100498.45;;;3.02;59.77
39177;BME280;24904;52.208;21.192;2023-03-15T19:45:17;100502.73;;;2.92;59.96
39177;BME280;24904;52.208;21.192;2023-03-15T19:50:20;100510.37;;;2.89;60.02
39177;BME280;24904;52.208;21.192;2023-03-15T19:55:23;100506.10;;;2.77;60.06
39177;BME280;24904;52.208;21.192;2023-03-15T20:00:28;100515.01;;;2.66;60.03
39177;BME280;24904;52.208;21.192;2023-03-15T20:05:31;100517.27;;;2.56;60.27
39177;BME280;24904;52.208;21.192;2023-03-15T20:10:36;100518.60;;;2.45;60.62
39177;BME280;24904;52.208;21.192;2023-03-15T20:15:39;100517.81;;;2.36;60.76
39177;BME280;24904;52.208;21.192;2023-03-15T20:20:42;100519.95;;;2.30;61.26
39177;BME280;24904;52.208;21.192;2023-03-15T20:25:45;100519.41;;;2.29;61.35
39177;BME280;24904;52.208;21.192;2023-03-15T20:30:48;100524.95;;;2.28;61.63
39177;BME280;24904;52.208;21.192;2023-03-15T20:35:52;100528.98;;;2.28;61.75
39177;BME280;24904;52.208;21.192;2023-03-15T20:40:56;100530.76;;;2.26;61.77
39177;BME280;24904;52.208;21.192;2023-03-15T20:46:00;100535.77;;;2.23;61.89
39177;BME280;24904;52.208;21.192;2023-03-15T20:51:04;100540.94;;;2.24;62.33
39177;BME280;24904;52.208;21.192;2023-03-15T20:56:08;100539.23;;;2.19;62.09
39177;BME280;24904;52.208;21.192;2023-03-15T21:01:12;100541.73;;;2.16;62.21
39177;BME280;24904;52.208;21.192;2023-03-15T21:06:16;100542.23;;;2.14;62.47
39177;BME280;24904;52.208;21.192;2023-03-15T21:11:19;100546.60;;;2.08;62.51
39177;BME280;24904;52.208;21.192;2023-03-15T21:16:22;100548.35;;;2.05;62.75
39177;BME280;24904;52.208;21.192;2023-03-15T21:21:25;100551.84;;;1.99;62.41
39177;BME280;24904;52.208;21.192;2023-03-15T21:26:28;100556.30;;;2.02;62.78
39177;BME280;24904;52.208;21.192;2023-03-15T21:31:31;100558.99;;;2.05;62.73
39177;BME280;24904;52.208;21.192;2023-03-15T21:36:34;100566.56;;;2.11;62.95
39177;BME280;24904;52.208;21.192;2023-03-15T21:41:37;100567.98;;;2.18;63.05
39177;BME280;24904;52.208;21.192;2023-03-15T21:46:40;100572.10;;;2.19;62.85
39177;BME280;24904;52.208;21.192;2023-03-15T21:51:44;100572.77;;;2.23;63.16
39177;BME280;24904;52.208;21.192;2023-03-15T21:56:47;100578.42;;;2.25;63.45
39177;BME280;24904;52.208;21.192;2023-03-15T22:01:50;100578.92;;;2.28;63.33
39177;BME280;24904;52.208;21.192;2023-03-15T22:06:54;100586.39;;;2.32;63.26
39177;BME280;24904;52.208;21.192;2023-03-15T22:11:58;100590.38;;;2.35;63.45
39177;BME280;24904;52.208;21.192;2023-03-15T22:17:01;100596.62;;;2.38;63.21
39177;BME280;24904;52.208;21.192;2023-03-15T22:22:06;100600.66;;;2.42;63.41
39177;BME280;24904;52.208;21.192;2023-03-15T22:27:09;100605.58;;;2.45;63.54
39177;BME280;24904;52.208;21.192;2023-03-15T22:32:12;100608.77;;;2.57;63.24
39177;BME280;24904;52.208;21.192;2023-03-15T22:37:15;100615.62;;;2.61;63.22
39177;BME280;24904;52.208;21.192;2023-03-15T22:42:19;100619.43;;;2.68;63.34
39177;BME280;24904;52.208;21.192;2023-03-15T22:47:22;100621.01;;;2.70;63.06
39177;BME280;24904;52.208;21.192;2023-03-15T22:52:25;100627.98;;;2.76;63.60
39177;BME280;24904;52.208;21.192;2023-03-15T22:57:28;100627.45;;;2.74;63.13
39177;BME280;24904;52.208;21.192;2023-03-15T23:02:31;100633.80;;;2.71;62.98
39177;BME280;24904;52.208;21.192;2023-03-15T23:07:34;100640.11;;;2.63;62.72
39177;BME280;24904;52.208;21.192;2023-03-15T23:12:37;100645.27;;;2.60;62.86
39177;BME280;24904;52.208;21.192;2023-03-15T23:17:40;100653.22;;;2.59;62.67
39177;BME280;24904;52.208;21.192;2023-03-15T23:22:48;100656.34;;;2.56;62.88
39177;BME280;24904;52.208;21.192;2023-03-15T23:27:51;100661.56;;;2.45;62.60
39177;BME280;24904;52.208;21.192;2023-03-15T23:32:54;100669.90;;;2.40;63.02
39177;BME280;24904;52.208;21.192;2023-03-15T23:37:59;100678.55;;;2.33;62.62
39177;BME280;24904;52.208;21.192;2023-03-15T23:43:03;100680.58;;;2.32;62.85
39177;BME280;24904;52.208;21.192;2023-03-15T23:48:11;100684.34;;;2.33;63.06
39177;BME280;24904;52.208;21.192;2023-03-15T23:53:15;100688.75;;;2.34;63.15
39177;BME280;24904;52.208;21.192;2023-03-15T23:58:20;100696.00;;;2.31;63.41
